createdAt,value
2018-12-25T00:00:58.137Z,33.64
2018-12-25T00:03:26.329Z,33.60
2018-12-25T00:05:54.566Z,33.55
2018-12-25T00:08:22.768Z,33.53
2018-12-25T00:10:50.988Z,33.51
2018-12-25T00:13:19.186Z,33.55
2018-12-25T00:15:47.407Z,33.54
2018-12-25T00:18:15.617Z,33.58
2018-12-25T00:20:43.841Z,33.54
2018-12-25T00:23:12.039Z,33.63
2018-12-25T00:25:40.264Z,33.64
2018-12-25T00:28:08.472Z,33.67
2018-12-25T00:30:36.709Z,33.69
2018-12-25T00:33:05.004Z,33.73
2018-12-25T00:35:33.199Z,33.72
2018-12-25T00:38:01.446Z,33.75
2018-12-25T00:40:29.648Z,33.77
2018-12-25T00:42:57.842Z,33.76
2018-12-25T00:45:26.078Z,33.78
2018-12-25T00:47:54.280Z,33.84
2018-12-25T00:50:22.520Z,33.76
2018-12-25T00:52:50.742Z,33.82
2018-12-25T00:55:18.926Z,33.84
2018-12-25T00:57:47.149Z,33.83
2018-12-25T01:00:15.358Z,33.84
2018-12-25T01:02:43.568Z,33.87
2018-12-25T01:05:11.788Z,33.86
2018-12-25T01:07:40.008Z,33.85
2018-12-25T01:10:08.256Z,33.88
2018-12-25T01:12:36.445Z,33.86
2018-12-25T01:15:04.860Z,33.85
2018-12-25T01:17:33.063Z,33.85
2018-12-25T01:20:01.380Z,33.84
2018-12-25T01:22:29.655Z,33.84
2018-12-25T01:24:57.859Z,33.88
2018-12-25T01:27:26.087Z,33.86
2018-12-25T01:29:54.310Z,33.88
2018-12-25T01:32:22.511Z,33.86
2018-12-25T01:34:50.711Z,33.83
2018-12-25T01:37:18.928Z,33.87
2018-12-25T01:39:47.151Z,33.87
2018-12-25T01:42:15.352Z,33.85
2018-12-25T01:44:43.642Z,33.85
2018-12-25T01:47:11.866Z,33.88
2018-12-25T01:49:40.097Z,33.86
2018-12-25T01:52:08.292Z,33.85
2018-12-25T01:54:36.488Z,33.87
2018-12-25T01:57:04.716Z,33.87
2018-12-25T01:59:32.926Z,33.85
2018-12-25T02:02:01.159Z,33.85
2018-12-25T02:04:29.362Z,33.85
2018-12-25T02:06:57.650Z,33.79
2018-12-25T02:09:25.882Z,33.86
2018-12-25T02:11:54.074Z,33.83
2018-12-25T02:14:22.305Z,33.85
2018-12-25T02:16:50.513Z,33.82
2018-12-25T02:19:18.713Z,33.81
2018-12-25T02:21:46.942Z,33.81
2018-12-25T02:24:15.186Z,33.79
2018-12-25T02:26:43.400Z,33.78
2018-12-25T02:29:11.622Z,33.77
2018-12-25T02:31:39.819Z,33.77
2018-12-25T02:34:08.040Z,33.75
2018-12-25T02:36:36.245Z,33.74
2018-12-25T02:39:06.919Z,33.72
2018-12-25T02:41:35.116Z,33.72
2018-12-25T02:44:03.346Z,33.75
2018-12-25T02:46:31.572Z,33.73
2018-12-25T02:48:59.767Z,33.71
2018-12-25T02:51:27.990Z,33.74
2018-12-25T02:53:56.184Z,33.72
2018-12-25T02:56:24.399Z,33.71
2018-12-25T02:58:52.610Z,33.71
2018-12-25T03:01:20.804Z,33.73
2018-12-25T03:03:49.021Z,33.66
2018-12-25T03:06:17.266Z,33.69
2018-12-25T03:08:45.491Z,33.70
2018-12-25T03:11:13.712Z,33.61
2018-12-25T03:13:41.899Z,33.66
2018-12-25T03:16:10.122Z,33.60
2018-12-25T03:18:38.316Z,33.60
2018-12-25T03:21:06.540Z,33.57
2018-12-25T03:23:34.751Z,33.61
2018-12-25T03:26:02.954Z,33.57
2018-12-25T03:28:31.172Z,33.57
2018-12-25T03:30:59.416Z,33.56
2018-12-25T03:33:27.623Z,33.54
2018-12-25T03:35:55.875Z,33.50
2018-12-25T03:38:24.229Z,33.50
2018-12-25T03:40:52.374Z,33.50
2018-12-25T03:43:20.596Z,33.50
2018-12-25T03:45:48.813Z,33.46
2018-12-25T03:48:17.038Z,33.49
2018-12-25T03:50:45.230Z,33.48
2018-12-25T03:53:13.474Z,33.48
2018-12-25T03:55:41.658Z,33.45
2018-12-25T03:58:09.878Z,33.44
2018-12-25T04:00:38.089Z,33.44
2018-12-25T04:03:06.312Z,33.43
2018-12-25T04:05:34.514Z,33.43
2018-12-25T04:08:02.714Z,33.39
2018-12-25T04:10:30.946Z,33.42
2018-12-25T04:12:59.148Z,33.36
2018-12-25T04:15:27.526Z,33.40
2018-12-25T04:17:55.736Z,33.39
2018-12-25T04:20:23.968Z,33.37
2018-12-25T04:22:52.162Z,33.37
2018-12-25T04:25:20.370Z,33.34
2018-12-25T04:27:48.569Z,33.31
2018-12-25T04:30:16.802Z,33.36
2018-12-25T04:32:45.008Z,33.36
2018-12-25T04:35:13.221Z,33.37
2018-12-25T04:37:41.433Z,33.32
2018-12-25T04:40:09.638Z,33.39
2018-12-25T04:42:37.826Z,33.34
2018-12-25T04:45:06.055Z,33.36
2018-12-25T04:47:34.240Z,33.32
2018-12-25T04:50:02.467Z,33.35
2018-12-25T04:52:30.684Z,33.25
2018-12-25T04:54:58.890Z,33.26
2018-12-25T04:57:27.106Z,33.22
2018-12-25T04:59:55.299Z,33.27
2018-12-25T05:02:23.531Z,33.29
2018-12-25T05:04:51.719Z,33.25
2018-12-25T05:07:19.936Z,33.27
2018-12-25T05:09:48.158Z,33.29
2018-12-25T05:12:16.362Z,33.29
2018-12-25T05:14:44.575Z,33.36
2018-12-25T05:17:12.781Z,33.28
2018-12-25T05:19:41.009Z,33.37
2018-12-25T05:22:09.219Z,33.33
2018-12-25T05:24:37.461Z,33.38
2018-12-25T05:27:05.666Z,33.42
2018-12-25T05:29:33.878Z,33.35
2018-12-25T05:32:02.076Z,33.46
2018-12-25T05:34:30.292Z,33.42
2018-12-25T05:36:58.495Z,33.42
2018-12-25T05:39:26.749Z,33.41
2018-12-25T05:41:54.946Z,33.41
2018-12-25T05:44:23.159Z,33.39
2018-12-25T05:46:51.374Z,33.42
2018-12-25T05:49:19.598Z,33.37
2018-12-25T05:51:47.792Z,33.48
2018-12-25T05:54:16.012Z,33.41
2018-12-25T05:56:44.231Z,33.40
2018-12-25T05:59:12.535Z,33.39
2018-12-25T06:01:40.692Z,33.39
2018-12-25T06:04:08.900Z,33.38
2018-12-25T06:06:37.138Z,33.44
2018-12-25T06:09:06.670Z,33.54
2018-12-25T06:11:34.878Z,33.40
2018-12-25T06:14:03.084Z,33.54
2018-12-25T06:16:31.308Z,33.39
2018-12-25T06:18:59.501Z,33.43
2018-12-25T06:21:27.738Z,33.37
2018-12-25T06:23:55.939Z,33.42
2018-12-25T06:26:24.142Z,33.40
2018-12-25T06:28:52.361Z,33.39
2018-12-25T06:31:21.517Z,33.36
2018-12-25T06:33:49.785Z,33.36
2018-12-25T06:36:17.999Z,33.36
2018-12-25T06:38:46.205Z,33.36
2018-12-25T06:41:14.435Z,33.35
2018-12-25T06:43:42.669Z,33.32
2018-12-25T06:46:10.880Z,33.32
2018-12-25T06:48:39.106Z,33.30
2018-12-25T06:51:07.312Z,33.26
2018-12-25T06:53:35.544Z,33.27
2018-12-25T06:56:03.749Z,33.28
2018-12-25T06:58:31.985Z,33.32
2018-12-25T07:01:00.189Z,33.28
2018-12-25T07:03:28.415Z,33.28
2018-12-25T07:05:56.665Z,33.25
2018-12-25T07:08:24.865Z,33.25
2018-12-25T07:10:53.062Z,33.25
2018-12-25T07:13:21.271Z,33.22
2018-12-25T07:15:49.502Z,33.22
2018-12-25T07:18:17.705Z,33.22
2018-12-25T07:20:45.951Z,33.21
2018-12-25T07:23:14.150Z,33.21
2018-12-25T07:25:42.366Z,33.20
2018-12-25T07:28:10.556Z,33.20
2018-12-25T07:30:38.870Z,33.17
2018-12-25T07:33:07.063Z,33.20
2018-12-25T07:35:35.304Z,33.20
2018-12-25T07:38:03.502Z,33.18
2018-12-25T07:40:31.752Z,33.21
2018-12-25T07:42:59.954Z,33.19
2018-12-25T07:45:28.180Z,33.17
2018-12-25T07:47:56.379Z,33.19
2018-12-25T07:50:24.589Z,33.17
2018-12-25T07:52:52.804Z,33.17
2018-12-25T07:55:21.030Z,33.19
2018-12-25T07:57:49.228Z,33.19
2018-12-25T08:00:19.541Z,33.18
2018-12-25T08:02:47.402Z,33.17
2018-12-25T08:05:15.602Z,33.16
2018-12-25T08:07:43.830Z,33.15
2018-12-25T08:10:12.040Z,33.02
2018-12-25T08:12:40.262Z,33.12
2018-12-25T08:15:08.462Z,33.11
2018-12-25T08:17:36.675Z,33.09
2018-12-25T08:20:06.318Z,33.11
2018-12-25T08:22:34.534Z,33.08
2018-12-25T08:25:02.729Z,33.12
2018-12-25T08:27:30.940Z,33.12
2018-12-25T08:29:59.162Z,33.16
2018-12-25T08:32:27.350Z,33.21
2018-12-25T08:34:55.572Z,33.15
2018-12-25T08:37:23.794Z,33.19
2018-12-25T08:39:52.113Z,33.17
2018-12-25T08:42:20.403Z,33.21
2018-12-25T08:44:48.598Z,33.17
2018-12-25T08:47:16.800Z,33.25
2018-12-25T08:49:45.021Z,33.20
2018-12-25T08:52:13.225Z,33.16
2018-12-25T08:54:41.455Z,33.22
2018-12-25T08:57:09.701Z,33.21
2018-12-25T08:59:37.904Z,33.22
2018-12-25T09:02:06.138Z,33.14
2018-12-25T09:04:34.344Z,33.14
2018-12-25T09:07:02.552Z,33.17
2018-12-25T09:09:30.771Z,33.24
2018-12-25T09:11:58.990Z,33.14
2018-12-25T09:14:27.188Z,33.16
2018-12-25T09:16:55.496Z,33.16
2018-12-25T09:19:23.728Z,33.16
2018-12-25T09:21:51.950Z,33.17
2018-12-25T09:24:20.152Z,33.16
2018-12-25T09:26:48.408Z,33.16
2018-12-25T09:29:16.602Z,33.16
2018-12-25T09:31:44.800Z,33.10
2018-12-25T09:34:13.051Z,33.05
2018-12-25T09:36:41.252Z,33.09
2018-12-25T09:39:09.481Z,33.01
2018-12-25T09:41:37.690Z,33.03
2018-12-25T09:44:05.878Z,32.99
2018-12-25T09:46:33.464Z,33.05
2018-12-25T09:49:01.644Z,33.02
2018-12-25T09:51:29.868Z,33.04
2018-12-25T09:53:58.077Z,33.12
2018-12-25T09:56:26.306Z,33.09
2018-12-25T09:58:54.496Z,33.06
2018-12-25T10:01:22.800Z,33.08
2018-12-25T10:03:51.018Z,33.05
2018-12-25T10:06:19.250Z,33.03
2018-12-25T10:08:47.456Z,32.97
2018-12-25T10:11:15.692Z,32.97
2018-12-25T10:13:43.910Z,33.00
2018-12-25T10:16:12.121Z,32.97
2018-12-25T10:18:40.354Z,33.01
2018-12-25T10:21:08.569Z,32.92
2018-12-25T10:23:36.784Z,32.98
2018-12-25T10:26:05.019Z,33.03
2018-12-25T10:28:33.295Z,33.00
2018-12-25T10:31:01.515Z,33.00
2018-12-25T10:33:29.746Z,33.03
2018-12-25T10:35:58.032Z,33.11
2018-12-25T10:38:26.246Z,33.13
2018-12-25T10:40:54.469Z,33.16
2018-12-25T10:43:22.701Z,33.17
2018-12-25T10:45:50.920Z,33.15
2018-12-25T10:48:19.167Z,33.16
2018-12-25T10:50:47.355Z,33.15
2018-12-25T10:53:15.575Z,33.09
2018-12-25T10:55:43.790Z,33.11
2018-12-25T10:58:11.986Z,33.09
2018-12-25T11:00:42.361Z,33.11
2018-12-25T11:03:10.596Z,33.09
2018-12-25T11:05:38.805Z,33.09
2018-12-25T11:08:07.033Z,33.07
2018-12-25T11:10:35.247Z,33.06
2018-12-25T11:13:03.470Z,33.02
2018-12-25T11:15:31.704Z,33.04
2018-12-25T11:17:59.921Z,33.04
2018-12-25T11:20:29.204Z,33.02
2018-12-25T11:22:57.437Z,33.01
2018-12-25T11:25:25.658Z,33.03
2018-12-25T11:27:53.869Z,33.04
2018-12-25T11:30:22.061Z,33.04
2018-12-25T11:32:50.267Z,33.09
2018-12-25T11:35:18.471Z,33.05
2018-12-25T11:37:46.691Z,33.00
2018-12-25T11:40:14.883Z,33.01
2018-12-25T11:42:43.111Z,33.02
2018-12-25T11:45:11.333Z,33.00
2018-12-25T11:47:39.533Z,33.04
2018-12-25T11:50:07.764Z,33.04
2018-12-25T11:52:35.960Z,33.03
2018-12-25T11:55:04.207Z,33.03
2018-12-25T11:57:32.432Z,33.03
2018-12-25T12:00:00.655Z,33.04
2018-12-25T12:02:28.863Z,33.04
2018-12-25T12:04:57.080Z,33.04
2018-12-25T12:07:25.285Z,33.05
2018-12-25T12:09:53.500Z,33.05
2018-12-25T12:12:21.742Z,33.04
2018-12-25T12:14:49.924Z,33.05
2018-12-25T12:17:18.139Z,33.04
2018-12-25T12:19:46.371Z,33.01
2018-12-25T12:22:14.581Z,33.04
2018-12-25T12:24:42.805Z,32.97
2018-12-25T12:27:11.020Z,33.04
2018-12-25T12:29:39.251Z,32.99
2018-12-25T12:32:07.471Z,32.98
2018-12-25T12:34:35.705Z,33.04
2018-12-25T12:37:03.901Z,33.08
2018-12-25T12:39:32.157Z,33.09
2018-12-25T12:42:00.355Z,33.09
2018-12-25T12:44:28.571Z,32.90
2018-12-25T12:46:56.797Z,32.96
2018-12-25T12:49:25.000Z,32.96
2018-12-25T12:51:53.217Z,32.96
2018-12-25T12:54:21.397Z,32.89
2018-12-25T12:56:49.627Z,33.00
2018-12-25T12:59:17.863Z,32.96
2018-12-25T13:01:45.404Z,32.90
2018-12-25T13:04:12.989Z,32.89
2018-12-25T13:06:40.502Z,32.90
2018-12-25T13:09:08.023Z,32.88
2018-12-25T13:11:35.557Z,32.95
2018-12-25T13:14:03.095Z,32.99
2018-12-25T13:16:30.603Z,32.98
2018-12-25T13:18:58.141Z,32.95
2018-12-25T13:21:25.657Z,32.96
2018-12-25T13:23:53.215Z,32.99
2018-12-25T13:26:20.727Z,32.92
2018-12-25T13:28:48.214Z,32.91
2018-12-25T13:31:15.749Z,32.91
2018-12-25T13:33:43.242Z,32.87
2018-12-25T13:36:10.763Z,32.91
2018-12-25T13:38:38.288Z,32.91
2018-12-25T13:41:05.785Z,32.84
2018-12-25T13:43:33.361Z,32.84
2018-12-25T13:46:00.902Z,32.79
2018-12-25T13:48:28.392Z,32.87
2018-12-25T13:50:55.937Z,32.90
2018-12-25T13:53:24.310Z,32.82
2018-12-25T13:55:51.840Z,32.89
2018-12-25T13:58:19.368Z,32.85
2018-12-25T14:00:46.866Z,32.85
2018-12-25T14:03:14.380Z,32.81
2018-12-25T14:05:41.940Z,32.79
2018-12-25T14:08:09.464Z,32.82
2018-12-25T14:10:36.981Z,32.77
2018-12-25T14:13:05.155Z,32.80
2018-12-25T14:15:33.354Z,32.83
2018-12-25T14:18:01.583Z,32.80
2018-12-25T14:20:29.804Z,32.89
2018-12-25T14:22:58.030Z,32.88
2018-12-25T14:25:26.240Z,32.88
2018-12-25T14:27:54.462Z,32.92
2018-12-25T14:30:22.696Z,32.86
2018-12-25T14:32:50.908Z,32.91
2018-12-25T14:35:19.107Z,32.92
2018-12-25T14:37:46.774Z,32.91
2018-12-25T14:40:14.292Z,32.88
2018-12-25T14:42:41.824Z,32.91
2018-12-25T14:45:09.375Z,32.87
2018-12-25T14:47:36.884Z,32.89
2018-12-25T14:50:06.290Z,32.86
2018-12-25T14:52:33.794Z,32.85
2018-12-25T14:55:01.365Z,32.85
2018-12-25T14:57:28.901Z,32.83
2018-12-25T14:59:56.432Z,32.82
2018-12-25T15:02:23.983Z,32.81
2018-12-25T15:04:51.549Z,32.81
2018-12-25T15:07:19.156Z,32.81
2018-12-25T15:09:46.690Z,32.82
2018-12-25T15:12:14.232Z,32.81
2018-12-25T15:14:41.781Z,32.75
2018-12-25T15:17:09.294Z,32.78
2018-12-25T15:19:36.826Z,32.79
2018-12-25T15:22:04.339Z,32.80
2018-12-25T15:24:31.845Z,32.78
2018-12-25T15:26:59.371Z,32.81
2018-12-25T15:29:26.878Z,32.75
2018-12-25T15:31:54.410Z,32.81
2018-12-25T15:34:21.928Z,32.80
2018-12-25T15:36:49.454Z,32.78
2018-12-25T15:39:16.974Z,32.71
2018-12-25T15:41:44.510Z,32.80
2018-12-25T15:44:12.064Z,32.76
2018-12-25T15:46:39.564Z,32.78
2018-12-25T15:49:07.091Z,32.81
2018-12-25T15:51:34.622Z,32.79
2018-12-25T15:54:02.223Z,32.81
2018-12-25T15:56:29.734Z,32.72
2018-12-25T15:58:57.268Z,32.76
2018-12-25T16:01:24.784Z,32.74
2018-12-25T16:03:52.286Z,32.76
2018-12-25T16:06:19.819Z,32.79
2018-12-25T16:08:47.340Z,32.77
2018-12-25T16:11:16.693Z,32.72
2018-12-25T16:13:44.119Z,32.81
2018-12-25T16:16:11.660Z,32.79
2018-12-25T16:18:39.203Z,32.83
2018-12-25T16:21:06.708Z,32.80
2018-12-25T16:23:34.241Z,32.84
2018-12-25T16:26:01.754Z,32.82
2018-12-25T16:28:29.266Z,32.79
2018-12-25T16:30:56.782Z,32.83
2018-12-25T16:33:24.302Z,32.79
2018-12-25T16:35:51.814Z,32.83
2018-12-25T16:38:19.341Z,32.84
2018-12-25T16:40:46.878Z,32.84
2018-12-25T16:43:14.374Z,32.85
2018-12-25T16:45:41.900Z,32.82
2018-12-25T16:48:09.410Z,32.86
2018-12-25T16:50:36.928Z,32.85
2018-12-25T16:53:04.479Z,32.87
2018-12-25T16:55:32.055Z,32.89
2018-12-25T16:57:59.592Z,32.87
2018-12-25T17:00:27.090Z,32.87
2018-12-25T17:02:54.614Z,32.88
2018-12-25T17:05:22.119Z,32.87
2018-12-25T17:07:49.642Z,32.89
2018-12-25T17:10:17.179Z,32.88
2018-12-25T17:12:44.684Z,32.88
2018-12-25T17:15:12.209Z,32.89
2018-12-25T17:17:39.705Z,32.84
2018-12-25T17:20:07.816Z,32.87
2018-12-25T17:22:35.393Z,32.89
2018-12-25T17:25:03.011Z,32.89
2018-12-25T17:27:30.514Z,32.87
2018-12-25T17:29:58.050Z,32.89
2018-12-25T17:32:25.595Z,32.86
2018-12-25T17:34:53.101Z,32.85
2018-12-25T17:37:20.622Z,32.87
2018-12-25T17:39:48.165Z,32.84
2018-12-25T17:42:15.685Z,32.88
2018-12-25T17:44:43.227Z,32.88
2018-12-25T17:47:10.789Z,32.88
2018-12-25T17:49:38.341Z,32.87
2018-12-25T17:52:05.860Z,32.85
2018-12-25T17:54:33.380Z,32.84
2018-12-25T17:57:01.537Z,32.84
2018-12-25T17:59:29.113Z,32.88
2018-12-25T18:01:56.671Z,32.86
2018-12-25T18:04:24.351Z,32.87
2018-12-25T18:06:51.864Z,32.87
2018-12-25T18:09:19.395Z,32.87
2018-12-25T18:11:46.921Z,32.81
2018-12-25T18:14:14.428Z,32.79
2018-12-25T18:16:41.977Z,32.78
2018-12-25T18:19:09.512Z,32.80
2018-12-25T18:21:37.024Z,32.79
2018-12-25T18:24:04.576Z,32.82
2018-12-25T18:26:32.121Z,32.83
2018-12-25T18:28:59.650Z,32.84
2018-12-25T18:31:27.170Z,32.84
2018-12-25T18:33:54.707Z,32.85
2018-12-25T18:36:22.235Z,32.86
2018-12-25T18:38:49.783Z,32.89
2018-12-25T18:41:17.314Z,32.89
2018-12-25T18:43:44.818Z,32.88
2018-12-25T18:46:12.336Z,32.89
2018-12-25T18:48:39.860Z,32.85
2018-12-25T18:51:08.008Z,32.85
2018-12-25T18:53:36.228Z,32.82
2018-12-25T18:56:04.451Z,32.83
2018-12-25T18:58:32.664Z,32.81
2018-12-25T19:01:00.926Z,32.84
2018-12-25T19:03:29.133Z,32.81
2018-12-25T19:05:57.356Z,32.79
2018-12-25T19:08:25.556Z,32.80
2018-12-25T19:10:53.780Z,32.77
2018-12-25T19:13:22.027Z,32.74
2018-12-25T19:15:50.234Z,32.78
2018-12-25T19:18:18.458Z,32.72
2018-12-25T19:20:46.670Z,32.77
2018-12-25T19:23:14.894Z,32.78
2018-12-25T19:25:43.106Z,32.75
2018-12-25T19:28:11.348Z,32.79
2018-12-25T19:30:39.560Z,32.79
2018-12-25T19:33:07.776Z,32.68
2018-12-25T19:35:36.007Z,32.75
2018-12-25T19:38:04.244Z,32.75
2018-12-25T19:40:32.461Z,32.78
2018-12-25T19:43:00.680Z,32.77
2018-12-25T19:45:29.226Z,32.76
2018-12-25T19:47:57.470Z,32.78
2018-12-25T19:50:25.674Z,32.78
2018-12-25T19:52:53.892Z,32.76
2018-12-25T19:55:22.115Z,32.67
2018-12-25T19:57:50.336Z,32.72
2018-12-25T20:00:18.547Z,32.71
2018-12-25T20:02:47.921Z,32.71
2018-12-25T20:05:19.414Z,32.71
2018-12-25T20:08:05.860Z,32.71
2018-12-25T20:10:46.620Z,32.73
2018-12-25T20:13:35.076Z,32.72
2018-12-25T20:16:32.308Z,32.70
2018-12-25T20:19:09.369Z,32.67
2018-12-25T20:21:40.822Z,32.64
2018-12-25T20:24:20.862Z,32.65
2018-12-25T20:27:10.450Z,32.67
2018-12-25T20:30:00.321Z,32.70
2018-12-25T20:32:55.879Z,32.71
2018-12-25T20:35:44.348Z,32.72
2018-12-25T20:38:30.639Z,32.69
2018-12-25T20:41:13.947Z,32.59
2018-12-25T20:44:04.420Z,32.62
2018-12-25T20:46:54.902Z,32.58
2018-12-25T20:49:38.419Z,32.60
2018-12-25T20:52:32.531Z,32.63
2018-12-25T20:55:10.057Z,32.61
2018-12-25T20:58:07.040Z,32.56
2018-12-25T21:00:56.658Z,32.59
2018-12-25T21:03:42.996Z,32.62
2018-12-25T21:06:36.755Z,32.62
2018-12-25T21:09:35.416Z,32.61
2018-12-25T21:12:18.374Z,32.65
2018-12-25T21:15:16.596Z,32.63
2018-12-25T21:17:56.412Z,32.57
2018-12-25T21:20:44.436Z,32.56
2018-12-25T21:23:49.260Z,32.57
2018-12-25T21:26:53.840Z,32.57
2018-12-25T21:29:22.168Z,32.57
2018-12-25T21:31:50.400Z,32.55
2018-12-25T21:34:18.626Z,32.59
2018-12-25T21:36:49.623Z,32.51
2018-12-25T21:39:17.872Z,32.52
2018-12-25T21:41:46.058Z,32.54
2018-12-25T21:44:14.291Z,32.52
2018-12-25T21:46:42.496Z,32.48
2018-12-25T21:49:11.650Z,32.52
2018-12-25T21:51:39.888Z,32.44
2018-12-25T21:54:08.112Z,32.46
2018-12-25T21:56:36.308Z,32.46
2018-12-25T21:59:04.541Z,32.46
2018-12-25T22:01:32.758Z,32.48
2018-12-25T22:04:01.006Z,32.46
2018-12-25T22:06:29.211Z,32.44
2018-12-25T22:08:57.439Z,32.40
2018-12-25T22:11:25.656Z,32.42
2018-12-25T22:13:53.872Z,32.46
2018-12-25T22:16:22.254Z,32.36
2018-12-25T22:18:50.647Z,32.39
2018-12-25T22:21:18.890Z,32.32
2018-12-25T22:23:47.086Z,32.31
2018-12-25T22:26:15.321Z,32.35
2018-12-25T22:28:43.547Z,32.37
2018-12-25T22:31:11.849Z,32.33
2018-12-25T22:33:40.067Z,32.27
2018-12-25T22:36:08.276Z,32.31
2018-12-25T22:38:36.512Z,32.32
2018-12-25T22:41:04.719Z,32.32
2018-12-25T22:43:32.939Z,32.23
2018-12-25T22:46:01.138Z,32.25
2018-12-25T22:48:29.368Z,32.29
2018-12-25T22:50:57.557Z,32.24
2018-12-25T22:53:25.776Z,32.27
2018-12-25T22:55:54.010Z,32.22
2018-12-25T22:58:22.235Z,32.19
2018-12-25T23:00:50.465Z,32.21
2018-12-25T23:03:18.670Z,32.21
2018-12-25T23:05:46.896Z,32.15
2018-12-25T23:08:15.102Z,32.13
2018-12-25T23:10:43.336Z,32.19
2018-12-25T23:13:11.546Z,32.12
2018-12-25T23:15:39.760Z,32.11
2018-12-25T23:18:08.009Z,32.13
2018-12-25T23:20:36.207Z,32.15
2018-12-25T23:23:04.400Z,32.13
2018-12-25T23:25:32.619Z,32.09
2018-12-25T23:28:00.858Z,32.00
2018-12-25T23:30:29.092Z,31.90
2018-12-25T23:32:57.316Z,31.92
2018-12-25T23:35:25.558Z,31.86
2018-12-25T23:37:53.759Z,31.79
2018-12-25T23:40:21.998Z,31.70
2018-12-25T23:42:50.203Z,31.90
2018-12-25T23:45:18.433Z,31.84
2018-12-25T23:47:46.617Z,31.88
2018-12-25T23:50:14.839Z,31.79
2018-12-25T23:52:43.077Z,31.84
2018-12-25T23:55:11.279Z,31.83
2018-12-25T23:57:39.514Z,31.82
